Time;durP1;ratioP1;P1;durP2;ratioP2;P2;SDS_P1;SDS_P2;PMS_P1;PMS_P2;Temp;Humidity;BMP_temperature;BMP_pressure;BME280_temperature;BME280_humidity;BME280_pressure;Samples;Min_cycle;Max_cycle;Signal;HPM_P1;HPM_P2
2021/09/24 00:00:10;;;;;;;14.48;6.60;;;;;;;;;;4994444;28;20029;-83
2021/09/24 00:02:55;;;;;;;14.48;6.80;;;;;;;;;;4993625;28;20404;-83
2021/09/24 00:05:40;;;;;;;12.93;6.85;;;;;;;;;;4994630;28;20057;-83
2021/09/24 00:08:25;;;;;;;12.05;6.32;;;;;;;;;;4993960;28;20026;-83
2021/09/24 00:11:11;;;;;;;13.00;6.30;;;;;;;;;;4994716;28;20032;-84
2021/09/24 00:13:56;;;;;;;11.50;6.50;;;;;;;;;;4992885;28;21297;-84
2021/09/24 00:16:41;;;;;;;11.02;5.57;;;;;;;;;;4993095;28;20373;-84
2021/09/24 00:19:26;;;;;;;11.05;5.50;;;;;;;;;;4994019;28;20448;-83
2021/09/24 00:22:12;;;;;;;9.25;5.68;;;;;;;;;;4994887;28;20516;-84
2021/09/24 00:24:57;;;;;;;9.50;5.15;;;;;;;;;;4993730;28;20095;-84
2021/09/24 00:27:42;;;;;;;10.65;5.13;;;;;;;;;;4994340;28;20053;-84
2021/09/24 00:30:27;;;;;;;15.02;6.60;;;;;;;;;;4987045;28;20026;-83
2021/09/24 00:33:13;;;;;;;14.25;5.90;;;;;;;;;;4993624;28;20026;-84
2021/09/24 00:35:58;;;;;;;9.15;5.47;;;;;;;;;;4992186;28;20072;-84
2021/09/24 00:38:43;;;;;;;19.98;7.82;;;;;;;;;;4994812;28;20100;-83
2021/09/24 00:41:28;;;;;;;12.40;6.10;;;;;;;;;;4991399;28;20026;-84
2021/09/24 00:44:14;;;;;;;12.75;6.68;;;;;;;;;;4998118;28;20041;-84
2021/09/24 00:46:59;;;;;;;15.40;6.28;;;;;;;;;;4993294;28;20104;-84
2021/09/24 00:49:45;;;;;;;13.73;6.85;;;;;;;;;;4995046;28;20057;-83
2021/09/24 00:52:30;;;;;;;18.17;7.95;;;;;;;;;;4997244;28;20112;-84
2021/09/24 00:55:15;;;;;;;15.52;7.07;;;;;;;;;;4996229;28;20029;-84
2021/09/24 00:58:00;;;;;;;18.52;7.15;;;;;;;;;;5009953;28;20484;-84
2021/09/24 01:00:46;;;;;;;11.82;7.07;;;;;;;;;;4997234;28;20133;-84
2021/09/24 01:03:31;;;;;;;12.57;5.82;;;;;;;;;;4995974;28;20477;-84
2021/09/24 01:06:16;;;;;;;12.32;6.43;;;;;;;;;;4996227;28;20439;-83
2021/09/24 01:09:01;;;;;;;19.60;6.47;;;;;;;;;;4997511;28;20040;-83
2021/09/24 01:11:47;;;;;;;15.27;5.53;;;;;;;;;;4994817;28;20141;-84
2021/09/24 01:14:35;;;;;;;11.32;6.05;;;;;;;;;;4997146;28;20025;-83
2021/09/24 01:17:21;;;;;;;11.10;5.97;;;;;;;;;;4994160;28;20030;-83
2021/09/24 01:20:07;;;;;;;9.02;5.32;;;;;;;;;;4997464;28;20066;-82
2021/09/24 01:22:52;;;;;;;11.40;5.65;;;;;;;;;;4995610;28;20025;-83
2021/09/24 01:25:37;;;;;;;11.73;5.03;;;;;;;;;;4996425;28;20476;-83
2021/09/24 01:28:23;;;;;;;6.90;4.60;;;;;;;;;;4996348;28;20113;-84
2021/09/24 01:31:08;;;;;;;8.98;5.43;;;;;;;;;;4997635;28;20025;-84
2021/09/24 01:33:53;;;;;;;8.00;4.93;;;;;;;;;;4994002;28;20021;-83
2021/09/24 01:36:38;;;;;;;7.40;4.68;;;;;;;;;;4996538;28;20033;-84
2021/09/24 01:39:24;;;;;;;7.95;5.25;;;;;;;;;;4996858;28;20078;-84
2021/09/24 01:42:09;;;;;;;7.18;4.68;;;;;;;;;;4995166;28;20060;-83
2021/09/24 01:44:54;;;;;;;10.35;5.35;;;;;;;;;;4997096;28;20100;-84
2021/09/24 01:47:39;;;;;;;7.35;4.45;;;;;;;;;;4995256;28;20721;-82
2021/09/24 01:50:25;;;;;;;6.22;4.30;;;;;;;;;;4996285;28;20088;-83
2021/09/24 01:53:10;;;;;;;7.03;5.05;;;;;;;;;;4988075;28;20041;-83
2021/09/24 01:55:55;;;;;;;8.07;4.40;;;;;;;;;;4996954;28;20033;-83
2021/09/24 01:58:40;;;;;;;9.75;4.97;;;;;;;;;;4989510;28;20054;-83
2021/09/24 02:01:25;;;;;;;7.72;4.45;;;;;;;;;;4996644;28;20026;-81
2021/09/24 02:04:11;;;;;;;8.05;4.82;;;;;;;;;;4994825;28;20045;-81
2021/09/24 02:06:56;;;;;;;6.93;4.55;;;;;;;;;;4996131;28;20037;-84
2021/09/24 02:09:41;;;;;;;7.70;4.88;;;;;;;;;;4995434;28;20080;-83
2021/09/24 02:12:27;;;;;;;7.97;5.13;;;;;;;;;;4996838;28;20028;-84
2021/09/24 02:15:12;;;;;;;7.10;4.18;;;;;;;;;;4992025;28;20384;-83
2021/09/24 02:17:57;;;;;;;8.00;4.82;;;;;;;;;;4996304;28;20030;-83
2021/09/24 02:20:42;;;;;;;6.40;4.95;;;;;;;;;;4995397;28;20375;-84
2021/09/24 02:23:28;;;;;;;7.63;4.90;;;;;;;;;;4991780;28;20087;-84
2021/09/24 02:26:13;;;;;;;7.40;4.95;;;;;;;;;;4995140;28;20036;-84
2021/09/24 02:28:58;;;;;;;8.52;5.07;;;;;;;;;;4994004;28;20034;-85
2021/09/24 02:31:43;;;;;;;8.02;4.68;;;;;;;;;;4993077;28;20014;-84
2021/09/24 02:34:28;;;;;;;7.75;4.60;;;;;;;;;;4994084;28;20025;-84
2021/09/24 02:37:14;;;;;;;14.18;4.90;;;;;;;;;;4995266;28;20030;-85
2021/09/24 02:39:59;;;;;;;8.77;5.43;;;;;;;;;;4994609;28;20032;-84
2021/09/24 02:42:45;;;;;;;6.40;4.80;;;;;;;;;;4995450;28;20030;-84
2021/09/24 02:45:30;;;;;;;8.70;4.53;;;;;;;;;;4993757;28;20080;-84
2021/09/24 02:48:15;;;;;;;9.30;5.00;;;;;;;;;;4994008;28;20089;-84
2021/09/24 02:51:00;;;;;;;7.03;4.57;;;;;;;;;;4994410;28;20032;-84
2021/09/24 02:53:45;;;;;;;5.70;4.55;;;;;;;;;;4991617;28;20029;-85
2021/09/24 02:56:31;;;;;;;8.05;4.40;;;;;;;;;;4992551;28;20025;-85
2021/09/24 02:59:16;;;;;;;8.07;4.78;;;;;;;;;;4991206;28;20021;-83
2021/09/24 03:02:01;;;;;;;7.85;5.07;;;;;;;;;;4994208;28;20029;-84
2021/09/24 03:04:46;;;;;;;7.63;4.78;;;;;;;;;;4993043;28;20030;-83
2021/09/24 03:07:32;;;;;;;6.35;4.32;;;;;;;;;;4988790;28;20025;-84
2021/09/24 03:10:18;;;;;;;6.65;4.32;;;;;;;;;;4991345;28;20053;-83
2021/09/24 03:13:03;;;;;;;7.40;5.22;;;;;;;;;;4995168;28;20048;-83
2021/09/24 03:15:48;;;;;;;10.57;4.93;;;;;;;;;;4994024;28;20168;-84
2021/09/24 03:18:33;;;;;;;8.10;5.35;;;;;;;;;;4994293;28;20501;-83
2021/09/24 03:21:19;;;;;;;6.38;4.50;;;;;;;;;;4995700;28;20030;-85
2021/09/24 03:24:04;;;;;;;7.35;4.95;;;;;;;;;;4991093;28;20361;-82
2021/09/24 03:26:49;;;;;;;6.80;5.03;;;;;;;;;;4993292;28;20029;-83
2021/09/24 03:29:35;;;;;;;7.88;5.32;;;;;;;;;;4989254;28;20025;-83
2021/09/24 03:32:20;;;;;;;8.23;4.75;;;;;;;;;;4993325;28;20022;-84
2021/09/24 03:35:06;;;;;;;7.65;5.05;;;;;;;;;;4994483;28;20456;-84
2021/09/24 03:37:52;;;;;;;7.97;4.85;;;;;;;;;;4987063;28;20018;-83
2021/09/24 03:40:37;;;;;;;8.40;4.95;;;;;;;;;;4995085;28;20029;-83
2021/09/24 03:43:22;;;;;;;9.20;6.75;;;;;;;;;;4993565;28;20120;-84
2021/09/24 03:46:07;;;;;;;9.57;5.03;;;;;;;;;;4994370;28;20025;-84
2021/09/24 03:48:52;;;;;;;10.38;6.00;;;;;;;;;;4992788;28;20044;-84
2021/09/24 03:51:38;;;;;;;8.98;5.30;;;;;;;;;;4994677;28;20204;-84
2021/09/24 03:54:23;;;;;;;8.40;5.75;;;;;;;;;;4994498;28;20327;-84
2021/09/24 03:57:08;;;;;;;8.90;5.68;;;;;;;;;;4993608;28;20036;-84
2021/09/24 03:59:54;;;;;;;7.95;5.28;;;;;;;;;;4991894;28;20505;-84
2021/09/24 04:02:39;;;;;;;7.90;5.35;;;;;;;;;;4986828;28;21519;-85
2021/09/24 04:05:24;;;;;;;9.07;5.88;;;;;;;;;;5007944;28;20634;-83
2021/09/24 04:08:10;;;;;;;10.13;5.70;;;;;;;;;;4988050;28;20392;-83
2021/09/24 04:10:55;;;;;;;8.20;5.20;;;;;;;;;;4994555;28;20029;-83
2021/09/24 04:13:40;;;;;;;7.25;4.93;;;;;;;;;;4993278;28;20442;-84
2021/09/24 04:16:25;;;;;;;9.52;5.50;;;;;;;;;;4994224;28;20025;-84
2021/09/24 04:19:10;;;;;;;8.25;5.68;;;;;;;;;;4981538;28;20050;-83
2021/09/24 04:21:56;;;;;;;8.65;5.50;;;;;;;;;;4998497;28;20029;-83
2021/09/24 04:24:41;;;;;;;8.45;5.03;;;;;;;;;;4980292;28;20046;-83
2021/09/24 04:27:26;;;;;;;7.88;4.95;;;;;;;;;;4998304;28;20061;-83
2021/09/24 04:30:14;;;;;;;9.27;4.95;;;;;;;;;;4983747;28;20113;-83
2021/09/24 04:32:59;;;;;;;8.85;6.25;;;;;;;;;;4996508;28;20484;-83
2021/09/24 04:35:45;;;;;;;9.95;5.45;;;;;;;;;;4996541;28;20409;-84
2021/09/24 04:38:30;;;;;;;8.00;5.43;;;;;;;;;;4998399;28;20037;-83
2021/09/24 04:41:15;;;;;;;8.70;5.10;;;;;;;;;;4996291;28;20057;-84
2021/09/24 04:44:01;;;;;;;8.63;5.50;;;;;;;;;;4997028;28;20024;-84
2021/09/24 04:46:47;;;;;;;10.98;5.50;;;;;;;;;;5008884;28;20087;-84
2021/09/24 04:49:32;;;;;;;7.70;5.07;;;;;;;;;;4996437;28;20046;-84
2021/09/24 04:52:20;;;;;;;7.60;5.10;;;;;;;;;;4998710;28;20057;-85
2021/09/24 04:55:06;;;;;;;7.95;5.00;;;;;;;;;;4993912;28;20036;-84
2021/09/24 04:57:51;;;;;;;10.55;5.97;;;;;;;;;;4997321;28;20097;-83
2021/09/24 05:00:37;;;;;;;7.82;5.45;;;;;;;;;;4994576;28;20112;-84
2021/09/24 05:03:22;;;;;;;9.10;6.03;;;;;;;;;;4996545;28;20034;-84
2021/09/24 05:06:07;;;;;;;10.68;4.95;;;;;;;;;;4995427;28;20022;-83
2021/09/24 05:08:52;;;;;;;9.05;6.30;;;;;;;;;;4997684;28;20052;-82
2021/09/24 05:11:38;;;;;;;9.18;5.85;;;;;;;;;;4996777;28;20061;-86
2021/09/24 05:14:24;;;;;;;9.52;5.93;;;;;;;;;;4994681;28;20033;-83
2021/09/24 05:17:09;;;;;;;9.10;6.43;;;;;;;;;;4994485;28;20567;-84
2021/09/24 05:19:54;;;;;;;7.95;5.25;;;;;;;;;;4994646;28;20383;-82
2021/09/24 05:22:40;;;;;;;9.40;5.65;;;;;;;;;;4981777;28;20026;-87
2021/09/24 05:25:25;;;;;;;8.35;5.78;;;;;;;;;;4985657;28;20096;-87
2021/09/24 05:28:11;;;;;;;9.05;5.82;;;;;;;;;;4999895;28;20048;-89
2021/09/24 05:30:56;;;;;;;10.05;5.70;;;;;;;;;;4998909;28;20532;-88
2021/09/24 05:33:41;;;;;;;10.65;6.32;;;;;;;;;;4996355;28;20036;-91
2021/09/24 05:36:27;;;;;;;8.75;5.47;;;;;;;;;;4984074;28;20019;-94
2021/09/24 05:39:12;;;;;;;9.63;6.05;;;;;;;;;;4990693;28;20029;-87
2021/09/24 05:42:00;;;;;;;10.32;6.10;;;;;;;;;;4996997;28;20588;-89
2021/09/24 05:44:45;;;;;;;10.18;6.53;;;;;;;;;;4996738;28;20523;-87
2021/09/24 05:47:30;;;;;;;11.77;6.75;;;;;;;;;;4993822;28;20033;-88
2021/09/24 05:50:16;;;;;;;9.73;6.40;;;;;;;;;;4997957;28;20034;-88
2021/09/24 05:53:02;;;;;;;10.15;6.63;;;;;;;;;;4993630;28;20115;-84
2021/09/24 05:55:47;;;;;;;8.07;5.70;;;;;;;;;;4995878;28;20030;-83
2021/09/24 05:58:33;;;;;;;9.40;5.95;;;;;;;;;;4995332;28;20033;-84
2021/09/24 06:01:19;;;;;;;12.82;6.65;;;;;;;;;;4996319;28;20034;-83
2021/09/24 06:04:04;;;;;;;9.45;5.75;;;;;;;;;;4994376;28;20021;-83
2021/09/24 06:06:49;;;;;;;12.38;6.68;;;;;;;;;;4995511;28;20029;-85
2021/09/24 06:09:34;;;;;;;11.43;6.40;;;;;;;;;;4995200;28;20189;-84
2021/09/24 06:12:20;;;;;;;8.55;6.25;;;;;;;;;;4995732;28;20014;-83
2021/09/24 06:15:05;;;;;;;9.23;7.10;;;;;;;;;;4995639;28;20033;-83
2021/09/24 06:17:50;;;;;;;10.02;6.60;;;;;;;;;;4994220;28;20480;-84
2021/09/24 06:20:36;;;;;;;11.00;6.30;;;;;;;;;;4994668;28;20080;-83
2021/09/24 06:23:21;;;;;;;9.55;6.88;;;;;;;;;;4994363;28;20049;-84
2021/09/24 06:26:06;;;;;;;11.35;6.80;;;;;;;;;;4995498;28;20017;-83
2021/09/24 06:28:52;;;;;;;12.00;7.07;;;;;;;;;;4993656;28;20436;-84
2021/09/24 06:31:37;;;;;;;11.55;7.15;;;;;;;;;;4995555;28;20029;-84
2021/09/24 06:34:22;;;;;;;9.98;6.38;;;;;;;;;;4993916;28;20018;-84
2021/09/24 06:37:08;;;;;;;9.18;6.45;;;;;;;;;;4995355;28;20026;-84
2021/09/24 06:39:53;;;;;;;8.93;5.93;;;;;;;;;;4994803;28;20053;-85
2021/09/24 06:42:39;;;;;;;12.00;6.85;;;;;;;;;;4995562;28;20025;-84
2021/09/24 06:45:24;;;;;;;10.35;5.82;;;;;;;;;;4993925;28;20033;-85
2021/09/24 06:48:09;;;;;;;10.18;6.75;;;;;;;;;;4994742;28;20077;-85
2021/09/24 06:50:54;;;;;;;9.15;6.15;;;;;;;;;;4992224;28;20548;-86
2021/09/24 06:53:40;;;;;;;12.02;6.63;;;;;;;;;;5000970;28;20030;-88
2021/09/24 06:56:25;;;;;;;10.32;6.65;;;;;;;;;;4997618;28;20072;-90
2021/09/24 06:59:10;;;;;;;8.65;6.18;;;;;;;;;;4982726;28;20030;-90
2021/09/24 07:01:58;;;;;;;13.85;6.63;;;;;;;;;;4983802;28;20588;-90
2021/09/24 07:15:09;;;;;;;11.70;6.60;;;;;;;;;;4943896;28;20066;-92
2021/09/24 07:17:55;;;;;;;9.05;5.90;;;;;;;;;;4995428;28;20080;-90
2021/09/24 07:20:40;;;;;;;10.13;6.03;;;;;;;;;;4999536;28;20117;-86
2021/09/24 07:23:25;;;;;;;8.23;5.88;;;;;;;;;;4990751;28;20084;-90
2021/09/24 07:26:11;;;;;;;8.00;5.88;;;;;;;;;;4978430;28;20419;-88
2021/09/24 07:28:56;;;;;;;8.90;5.88;;;;;;;;;;5003087;28;20029;-92
2021/09/24 07:31:43;;;;;;;12.68;7.28;;;;;;;;;;4994973;28;20025;-90
2021/09/24 07:34:28;;;;;;;8.50;5.80;;;;;;;;;;4996247;28;20484;-88
2021/09/24 07:37:14;;;;;;;7.63;5.30;;;;;;;;;;4996404;28;20014;-89
2021/09/24 07:40:03;;;;;;;8.55;5.05;;;;;;;;;;4990503;28;20101;-85
2021/09/24 07:42:48;;;;;;;8.90;6.22;;;;;;;;;;4988666;28;20024;-85
2021/09/24 07:45:33;;;;;;;9.98;5.22;;;;;;;;;;4992422;28;20496;-86
2021/09/24 07:48:19;;;;;;;6.75;5.35;;;;;;;;;;4987719;28;20058;-84
2021/09/24 07:51:04;;;;;;;7.70;5.63;;;;;;;;;;4991051;28;20464;-84
2021/09/24 07:53:49;;;;;;;9.52;5.95;;;;;;;;;;4980111;28;20033;-85
2021/09/24 07:56:35;;;;;;;7.35;5.35;;;;;;;;;;4990450;28;20096;-84
2021/09/24 07:59:20;;;;;;;7.43;4.65;;;;;;;;;;4992696;28;20392;-85
2021/09/24 08:02:06;;;;;;;7.50;5.28;;;;;;;;;;4990057;28;20032;-87
2021/09/24 08:04:51;;;;;;;6.78;4.90;;;;;;;;;;4993752;28;20101;-85
2021/09/24 08:07:37;;;;;;;7.05;4.60;;;;;;;;;;4995206;28;20084;-83
2021/09/24 08:10:24;;;;;;;9.02;5.10;;;;;;;;;;4997200;28;20026;-84
2021/09/24 08:13:13;;;;;;;7.20;5.05;;;;;;;;;;4994664;28;20037;-85
2021/09/24 08:15:58;;;;;;;8.63;4.95;;;;;;;;;;4994663;28;20064;-85
2021/09/24 08:18:43;;;;;;;7.70;4.90;;;;;;;;;;4993066;28;20034;-85
2021/09/24 08:21:29;;;;;;;7.93;4.88;;;;;;;;;;4994338;28;20547;-86
2021/09/24 08:24:15;;;;;;;7.45;4.85;;;;;;;;;;4988604;28;20037;-86
2021/09/24 08:27:00;;;;;;;7.15;4.82;;;;;;;;;;4991535;28;20080;-87
2021/09/24 08:29:45;;;;;;;7.68;4.75;;;;;;;;;;4993655;28;20025;-87
2021/09/24 08:32:32;;;;;;;7.28;5.25;;;;;;;;;;4983252;28;20242;-88
2021/09/24 08:35:18;;;;;;;8.02;4.60;;;;;;;;;;4992429;28;20048;-88
2021/09/24 08:38:03;;;;;;;6.22;4.70;;;;;;;;;;4993198;28;20030;-87
2021/09/24 08:40:48;;;;;;;7.10;5.13;;;;;;;;;;4993377;28;20033;-86
2021/09/24 08:43:34;;;;;;;6.38;4.78;;;;;;;;;;4995295;28;20046;-86
2021/09/24 08:46:19;;;;;;;9.15;4.47;;;;;;;;;;4992280;28;20730;-87
2021/09/24 08:49:05;;;;;;;7.50;4.97;;;;;;;;;;4983884;28;20042;-88
2021/09/24 08:51:50;;;;;;;8.23;4.43;;;;;;;;;;4989089;28;20030;-91
2021/09/24 08:54:35;;;;;;;7.60;4.63;;;;;;;;;;4981505;28;20548;-87
2021/09/24 08:57:21;;;;;;;8.80;4.22;;;;;;;;;;4990419;28;20034;-88
2021/09/24 09:00:07;;;;;;;7.65;4.63;;;;;;;;;;4988385;28;20373;-87
2021/09/24 09:03:10;;;;;;;9.07;4.30;;;;;;;;;;4988409;28;20038;-85
2021/09/24 09:05:56;;;;;;;8.00;4.47;;;;;;;;;;4989549;28;20037;-84
2021/09/24 09:08:42;;;;;;;7.15;4.05;;;;;;;;;;4992227;28;20030;-86
2021/09/24 09:11:28;;;;;;;8.95;4.75;;;;;;;;;;4989337;28;20057;-87
2021/09/24 09:14:17;;;;;;;5.32;3.75;;;;;;;;;;4991691;28;20034;-86
2021/09/24 09:17:22;;;;;;;5.72;4.43;;;;;;;;;;4989060;28;20038;-85
2021/09/24 09:20:09;;;;;;;5.15;3.85;;;;;;;;;;4988212;28;20037;-85
2021/09/24 09:23:00;;;;;;;6.30;3.92;;;;;;;;;;4990821;28;20026;-85
2021/09/24 09:25:46;;;;;;;6.07;3.70;;;;;;;;;;4986993;28;20034;-86
2021/09/24 09:28:34;;;;;;;6.80;3.70;;;;;;;;;;4989743;28;20090;-87
2021/09/24 09:31:19;;;;;;;5.38;3.78;;;;;;;;;;4990291;28;20029;-86
2021/09/24 09:34:06;;;;;;;7.63;3.72;;;;;;;;;;4990373;28;20022;-86
2021/09/24 09:36:51;;;;;;;6.32;3.35;;;;;;;;;;4988879;28;20019;-87
2021/09/24 09:39:36;;;;;;;7.25;3.80;;;;;;;;;;4990199;28;20536;-86
2021/09/24 09:42:30;;;;;;;4.38;3.42;;;;;;;;;;4989520;28;20042;-86
2021/09/24 09:45:16;;;;;;;3.88;3.35;;;;;;;;;;4989259;28;20030;-86
2021/09/24 09:48:01;;;;;;;5.72;3.28;;;;;;;;;;4994380;28;20037;-86
2021/09/24 09:50:50;;;;;;;10.88;3.83;;;;;;;;;;4996058;28;20104;-85
2021/09/24 09:53:35;;;;;;;4.10;2.92;;;;;;;;;;5004686;28;20029;-85
2021/09/24 09:56:21;;;;;;;4.93;3.33;;;;;;;;;;4988923;28;20041;-86
2021/09/24 09:59:27;;;;;;;6.35;3.13;;;;;;;;;;5007634;28;20033;-83
2021/09/24 10:02:18;;;;;;;7.30;3.00;;;;;;;;;;4992791;28;20030;-86
2021/09/24 10:05:03;;;;;;;4.43;3.13;;;;;;;;;;4994648;28;20076;-85
2021/09/24 10:07:49;;;;;;;4.78;2.88;;;;;;;;;;4983010;28;20026;-89
2021/09/24 10:10:34;;;;;;;5.05;3.13;;;;;;;;;;4994904;28;20029;-83
2021/09/24 10:13:19;;;;;;;6.18;2.90;;;;;;;;;;4989244;28;20060;-85
2021/09/24 10:16:05;;;;;;;4.70;2.60;;;;;;;;;;4995819;28;20424;-84
2021/09/24 10:18:50;;;;;;;3.17;2.88;;;;;;;;;;4993826;28;20025;-83
2021/09/24 10:21:35;;;;;;;4.10;2.85;;;;;;;;;;4994243;28;20022;-83
2021/09/24 10:24:21;;;;;;;2.83;2.40;;;;;;;;;;4992810;28;20030;-83
2021/09/24 10:27:07;;;;;;;3.55;2.33;;;;;;;;;;4994512;28;20076;-84
2021/09/24 10:29:53;;;;;;;5.38;2.80;;;;;;;;;;4994457;28;20234;-83
2021/09/24 10:32:55;;;;;;;2.80;2.50;;;;;;;;;;4993670;28;20476;-84
2021/09/24 10:35:54;;;;;;;3.03;2.58;;;;;;;;;;4993838;28;20025;-84
2021/09/24 10:38:39;;;;;;;;;;;;;;;;;;4991369;28;20038;-84
2021/09/24 10:41:24;;;;;;;4.53;3.05;;;;;;;;;;4995470;28;19916;-86
2021/09/24 10:44:09;;;;;;;3.53;2.10;;;;;;;;;;4988943;28;20049;-84
2021/09/24 10:46:54;;;;;;;2.97;2.47;;;;;;;;;;4995592;28;20034;-83
2021/09/24 10:49:52;;;;;;;4.50;2.40;;;;;;;;;;4993593;28;20057;-84
2021/09/24 10:52:43;;;;;;;6.10;2.70;;;;;;;;;;4990917;28;20030;-84
2021/09/24 10:55:28;;;;;;;6.00;2.42;;;;;;;;;;4991522;28;20496;-83
2021/09/24 10:58:23;;;;;;;4.40;2.58;;;;;;;;;;4992310;28;20033;-84
2021/09/24 11:01:14;;;;;;;3.00;2.67;;;;;;;;;;4995484;28;20022;-84
2021/09/24 11:04:02;;;;;;;5.50;2.88;;;;;;;;;;4978521;28;20061;-84
2021/09/24 11:06:49;;;;;;;4.32;2.88;;;;;;;;;;4993096;28;20026;-83
2021/09/24 11:09:49;;;;;;;4.13;3.10;;;;;;;;;;4989417;28;20023;-82
2021/09/24 11:12:54;;;;;;;4.05;2.60;;;;;;;;;;4994620;28;20065;-82
2021/09/24 11:16:06;;;;;;;3.05;2.72;;;;;;;;;;4991300;28;20392;-82
2021/09/24 11:18:55;;;;;;;3.10;2.80;;;;;;;;;;5003722;28;20032;-84
2021/09/24 11:21:41;;;;;;;6.70;3.30;;;;;;;;;;4993014;28;20022;-86
2021/09/24 11:24:26;;;;;;;3.85;2.88;;;;;;;;;;4986249;28;20038;-85
2021/09/24 11:27:30;;;;;;;6.38;2.90;;;;;;;;;;4992095;28;20030;-87
2021/09/24 11:30:20;;;;;;;4.50;3.10;;;;;;;;;;4991813;28;20036;-85
2021/09/24 11:33:06;;;;;;;3.63;2.70;;;;;;;;;;4977218;28;20285;-85
2021/09/24 11:35:51;;;;;;;4.50;2.78;;;;;;;;;;4991249;28;20502;-85
2021/09/24 11:38:36;;;;;;;4.55;2.95;;;;;;;;;;4993031;28;20014;-85
2021/09/24 11:41:26;;;;;;;3.88;2.92;;;;;;;;;;4977710;28;20025;-85
2021/09/24 11:44:12;;;;;;;4.10;2.90;;;;;;;;;;4993570;28;20030;-84
2021/09/24 11:46:57;;;;;;;4.72;3.40;;;;;;;;;;4990769;28;20040;-85
2021/09/24 11:50:08;;;;;;;3.80;2.70;;;;;;;;;;4992434;28;20038;-85
2021/09/24 11:52:55;;;;;;;6.80;3.10;;;;;;;;;;4994259;28;20022;-83
2021/09/24 11:55:44;;;;;;;5.47;3.10;;;;;;;;;;4993834;28;20022;-86
2021/09/24 11:58:30;;;;;;;4.22;2.83;;;;;;;;;;5015545;28;20029;-90
2021/09/24 12:01:15;;;;;;;5.90;3.05;;;;;;;;;;4993893;28;20701;-88
2021/09/24 12:04:01;;;;;;;3.55;2.70;;;;;;;;;;4993687;28;20033;-87
2021/09/24 12:06:47;;;;;;;5.55;3.28;;;;;;;;;;4991511;28;20040;-89
2021/09/24 12:09:37;;;;;;;3.97;3.35;;;;;;;;;;4993717;28;20026;-88
2021/09/24 12:12:22;;;;;;;4.82;3.13;;;;;;;;;;4991967;28;20034;-88
2021/09/24 12:15:07;;;;;;;7.07;3.25;;;;;;;;;;4992388;28;20026;-88
2021/09/24 12:17:53;;;;;;;4.70;2.97;;;;;;;;;;4992898;28;20037;-88
2021/09/24 12:20:39;;;;;;;5.75;4.47;;;;;;;;;;4993454;28;20508;-87
2021/09/24 12:23:24;;;;;;;4.93;3.70;;;;;;;;;;4993213;28;20022;-88
2021/09/24 12:26:10;;;;;;;5.55;3.30;;;;;;;;;;4992450;28;20061;-88
2021/09/24 12:28:57;;;;;;;5.05;3.45;;;;;;;;;;4992326;28;20284;-86
2021/09/24 12:31:47;;;;;;;4.43;3.30;;;;;;;;;;4994178;28;20065;-90
2021/09/24 12:34:41;;;;;;;5.45;3.30;;;;;;;;;;4993091;28;20027;-89
2021/09/24 12:37:42;;;;;;;5.95;3.38;;;;;;;;;;4993972;28;20057;-89
2021/09/24 12:40:28;;;;;;;4.50;3.58;;;;;;;;;;5016487;28;20076;-91
2021/09/24 12:43:13;;;;;;;7.35;3.95;;;;;;;;;;4998291;28;20065;-91
2021/09/24 12:45:58;;;;;;;5.97;4.00;;;;;;;;;;4998729;28;20061;-90
2021/09/24 12:48:45;;;;;;;4.97;3.80;;;;;;;;;;4997636;28;20050;-89
2021/09/24 12:51:30;;;;;;;5.75;3.80;;;;;;;;;;4997628;28;20076;-89
2021/09/24 12:54:15;;;;;;;4.97;3.65;;;;;;;;;;4995104;28;20099;-89
2021/09/24 12:57:01;;;;;;;5.32;3.85;;;;;;;;;;4999011;28;20029;-92
2021/09/24 12:59:48;;;;;;;4.45;3.70;;;;;;;;;;4984356;28;20025;-90
2021/09/24 13:02:36;;;;;;;8.80;3.75;;;;;;;;;;4997735;28;20014;-88
2021/09/24 13:05:24;;;;;;;5.30;3.75;;;;;;;;;;4996812;28;20033;-88
2021/09/24 13:08:09;;;;;;;4.82;3.80;;;;;;;;;;4999093;28;20092;-88
2021/09/24 13:10:55;;;;;;;10.70;4.40;;;;;;;;;;5000988;28;20099;-89
2021/09/24 13:13:44;;;;;;;5.57;3.53;;;;;;;;;;4999107;28;20030;-92
2021/09/24 13:16:30;;;;;;;5.00;3.67;;;;;;;;;;5009944;28;20033;-87
2021/09/24 13:19:15;;;;;;;5.32;3.80;;;;;;;;;;5009811;28;20215;-90
2021/09/24 13:22:00;;;;;;;7.97;4.30;;;;;;;;;;4992198;28;20172;-90
2021/09/24 13:24:46;;;;;;;5.85;4.00;;;;;;;;;;4995051;28;20053;-88
2021/09/24 13:27:31;;;;;;;6.70;3.70;;;;;;;;;;4997798;28;20034;-89
2021/09/24 13:30:16;;;;;;;6.40;4.15;;;;;;;;;;4998263;28;20120;-89
2021/09/24 13:33:02;;;;;;;6.28;3.88;;;;;;;;;;4996765;28;20025;-87
2021/09/24 13:35:47;;;;;;;5.05;3.60;;;;;;;;;;4995898;28;20014;-88
2021/09/24 13:38:33;;;;;;;7.28;4.50;;;;;;;;;;5001566;28;20414;-93
2021/09/24 13:41:18;;;;;;;6.05;3.88;;;;;;;;;;4999233;28;20208;-93
2021/09/24 13:44:03;;;;;;;8.32;3.80;;;;;;;;;;4999712;28;20033;-90
2021/09/24 13:46:49;;;;;;;4.25;3.65;;;;;;;;;;4980835;28;20139;-90
2021/09/24 13:49:37;;;;;;;6.68;4.07;;;;;;;;;;4992886;28;20042;-91
2021/09/24 13:52:22;;;;;;;5.40;4.18;;;;;;;;;;4983497;28;20030;-88
2021/09/24 13:55:08;;;;;;;5.15;3.80;;;;;;;;;;4983639;28;20060;-94
2021/09/24 13:57:53;;;;;;;6.93;3.78;;;;;;;;;;4994599;28;20025;-86
2021/09/24 14:00:38;;;;;;;6.22;3.72;;;;;;;;;;4994711;28;20044;-90
2021/09/24 14:03:24;;;;;;;5.68;4.00;;;;;;;;;;4992434;28;20388;-87
2021/09/24 14:06:09;;;;;;;5.63;4.00;;;;;;;;;;4993729;28;20113;-86
2021/09/24 14:09:02;;;;;;;5.93;4.22;;;;;;;;;;4980230;28;20022;-87
2021/09/24 14:11:47;;;;;;;5.50;4.10;;;;;;;;;;4991987;28;20084;-88
2021/09/24 14:14:32;;;;;;;5.60;4.10;;;;;;;;;;4994606;28;20030;-88
2021/09/24 14:17:18;;;;;;;8.05;4.85;;;;;;;;;;4994194;28;20033;-87
2021/09/24 14:20:03;;;;;;;5.63;3.95;;;;;;;;;;4981737;28;20033;-88
2021/09/24 14:22:50;;;;;;;5.40;4.50;;;;;;;;;;4994623;28;20030;-87
2021/09/24 14:25:35;;;;;;;8.85;5.32;;;;;;;;;;4995296;28;20053;-90
2021/09/24 14:28:20;;;;;;;7.88;4.82;;;;;;;;;;4994609;28;20048;-91
2021/09/24 14:31:06;;;;;;;5.45;4.07;;;;;;;;;;4998343;28;20428;-88
2021/09/24 14:33:51;;;;;;;7.82;4.70;;;;;;;;;;4997698;28;20133;-92
2021/09/24 14:36:36;;;;;;;5.50;4.05;;;;;;;;;;4996475;28;20072;-91
2021/09/24 14:39:22;;;;;;;6.88;3.67;;;;;;;;;;4996708;28;20356;-89
2021/09/24 14:42:07;;;;;;;8.18;4.53;;;;;;;;;;4996308;28;20056;-90
2021/09/24 14:44:53;;;;;;;5.32;4.25;;;;;;;;;;4994045;28;20026;-88
2021/09/24 14:47:38;;;;;;;6.85;4.07;;;;;;;;;;4993974;28;20038;-88
2021/09/24 14:50:24;;;;;;;9.57;4.47;;;;;;;;;;4982256;28;20385;-87
2021/09/24 14:53:09;;;;;;;5.90;4.22;;;;;;;;;;4994599;28;20014;-88
2021/09/24 14:55:54;;;;;;;4.88;4.00;;;;;;;;;;4993948;28;20025;-87
2021/09/24 14:58:40;;;;;;;6.88;4.45;;;;;;;;;;4975156;28;20026;-87
2021/09/24 15:01:25;;;;;;;6.63;4.82;;;;;;;;;;4998369;28;20104;-90
2021/09/24 15:04:10;;;;;;;6.13;4.50;;;;;;;;;;4996468;28;20026;-86
2021/09/24 15:06:55;;;;;;;10.65;4.95;;;;;;;;;;4993349;28;20033;-84
2021/09/24 15:09:40;;;;;;;7.82;4.10;;;;;;;;;;4995507;28;20034;-88
2021/09/24 15:12:26;;;;;;;8.65;4.47;;;;;;;;;;4997870;28;20120;-89
2021/09/24 15:15:11;;;;;;;7.07;5.00;;;;;;;;;;4996109;28;20029;-90
2021/09/24 15:17:56;;;;;;;6.70;4.30;;;;;;;;;;5006594;28;20425;-91
2021/09/24 15:20:41;;;;;;;11.20;4.97;;;;;;;;;;4997667;28;20084;-90
2021/09/24 15:23:27;;;;;;;7.20;4.60;;;;;;;;;;4992476;28;20030;-88
2021/09/24 15:26:12;;;;;;;6.20;4.75;;;;;;;;;;4992970;28;20057;-86
2021/09/24 15:28:57;;;;;;;7.07;4.70;;;;;;;;;;5000687;28;20089;-89
2021/09/24 15:31:43;;;;;;;7.95;4.38;;;;;;;;;;4991958;28;20022;-86
2021/09/24 15:34:29;;;;;;;5.18;4.35;;;;;;;;;;4998550;28;20441;-90
2021/09/24 15:37:15;;;;;;;7.93;4.75;;;;;;;;;;5004200;28;20588;-83
2021/09/24 15:40:00;;;;;;;7.90;5.38;;;;;;;;;;4995667;28;20468;-85
2021/09/24 15:42:46;;;;;;;7.80;4.82;;;;;;;;;;4995650;28;20100;-86
2021/09/24 15:45:32;;;;;;;6.93;4.53;;;;;;;;;;4991736;28;20113;-86
2021/09/24 15:48:17;;;;;;;9.27;5.15;;;;;;;;;;4977154;28;20129;-87
2021/09/24 15:51:03;;;;;;;5.70;4.43;;;;;;;;;;4991429;28;20022;-85
2021/09/24 15:53:49;;;;;;;8.23;4.85;;;;;;;;;;4989617;28;20084;-84
2021/09/24 15:56:34;;;;;;;7.38;4.82;;;;;;;;;;4987804;28;20042;-85
2021/09/24 15:59:20;;;;;;;9.90;5.47;;;;;;;;;;4990029;28;20066;-87
2021/09/24 16:02:05;;;;;;;9.48;5.00;;;;;;;;;;4984459;28;20030;-88
2021/09/24 16:04:50;;;;;;;13.18;8.20;;;;;;;;;;4990512;28;20093;-88
2021/09/24 16:07:36;;;;;;;15.52;11.23;;;;;;;;;;4985229;28;20152;-90
2021/09/24 16:10:21;;;;;;;9.95;5.70;;;;;;;;;;4988081;28;20810;-86
2021/09/24 16:13:06;;;;;;;54.40;46.67;;;;;;;;;;4984074;28;20085;-86
2021/09/24 16:15:51;;;;;;;24.25;17.85;;;;;;;;;;4987478;28;20035;-82
2021/09/24 16:18:36;;;;;;;22.20;17.33;;;;;;;;;;4986894;28;20381;-80
2021/09/24 16:21:22;;;;;;;26.10;19.42;;;;;;;;;;4987560;28;20667;-80
2021/09/24 16:24:07;;;;;;;8.82;5.50;;;;;;;;;;4988171;28;20392;-81
2021/09/24 16:27:10;;;;;;;9.45;5.18;;;;;;;;;;4972938;28;20034;-85
2021/09/24 16:29:56;;;;;;;7.07;5.35;;;;;;;;;;4988787;28;20026;-82
2021/09/24 16:32:48;;;;;;;10.13;4.65;;;;;;;;;;4984765;28;20026;-92
2021/09/24 16:38:54;;;;;;;7.18;4.20;;;;;;;;;;4970893;28;20037;-85
2021/09/24 16:41:45;;;;;;;6.75;4.78;;;;;;;;;;4984011;28;20018;-88
2021/09/24 16:44:30;;;;;;;8.13;4.60;;;;;;;;;;4989312;28;20045;-88
2021/09/24 16:47:16;;;;;;;14.55;9.90;;;;;;;;;;4980510;28;20481;-87